Saugus, CA

9:36 PM PDT on October 24, 2014 (GMT -0700)
AA6RV WX Station, California Canyons | Change Station
CLOSE
Current Station
Personal Weather Station
Location: Canyon Country, CA
Elevation: 1928 ft
Nearby Weather Stations

Elev 1928 ft 34.46 °N, 118.39 °W | Updated 4 minutes ago

Clear
Clear
61.0 °F
Feels Like 61.0 °F
N
0.0
Wind Variable Wind from NNE
Gusts 1.0 mph

Today
High -- | Low -- °F
--% Chance of Precip.
Yesterday
High -- | Low -- °F
Precip. -- in
7:06 AM 6:08 PM
New Moon, 2% visible
Pressure 30.00 in
Visibility 10.0 miles
Clouds Clear
Dew Point 33 °F
Humidity 35%
Rainfall 0.00 in
Snow Depth Not available.
UV 0 out of 12
Pollen 4.10 out of 12
Ozone Good
PM2.5 Good
Flu Activity Sporadic
METAR KWHP 250247Z 00000KT 10SM SKC 24/02 A3000 RMK LAST

More Conditions Fewer Conditions

Pressure 30.00 in
Visibility 10.0 miles
Clouds Clear
Dew Point 33 °F
Humidity 35%
Rainfall 0.00 in
Snow Depth Not available.
UV 0 out of 12
Pollen 4.10 out of 12
Ozone Good
PM2.5 Good
Flu Activity Sporadic
METAR KWHP 250247Z 00000KT 10SM SKC 24/02 A3000 RMK LAST

More Conditions Fewer Conditions

10-Day Weather Forecast

Almanac

Astronomy

Oct. 24, 2014 Rise Set
Actual Time 7:06 AM PDT 6:08 PM PDT
Civil Twilight 6:41 AM PDT 6:33 PM PDT
Nautical Twilight 6:11 AM PDT 7:03 PM PDT
Astronomical Twilight 5:42 AM PDT 7:32 PM PDT
Moon 7:49 AM PDT (10/24) 6:53 PM PDT (10/24)
Length of Visible Light 11h 52m
Length of Day
11h 01m
Tomorrow will be 1m 59s shorter.
New Moon, 2% of the Moon is Illuminated
Oct 25
New Moon
Oct 30
First Quarter
Nov 6
Full
Nov 14
Last Quarter
Nov 22
New

Yesterday's Extremes

State Highs State Lows

Community

WunderPhotos

Upload Photos

1,764,782 photos uploaded!

Nearby

Air Quality

  Air Quality AQ Index Pollutant
Yesterday Moderate
OZONE
Yesterday Good
PM2.5
Current Good
PM2.5
Current Good
OZONE
Saturday Good
PM10
Saturday Moderate
OZONE
Saturday Good
CO
Saturday Good
NO2

Snow Depth

Station Depth Elevation
Virginia Lakes Ridge 0 in 9200 ft
Leavitt Lake 1 in 9400 ft
Sonora Pass 0 in 8800 ft
Leavitt Meadows 0 in 7200 ft
Summit Meadow 1 in 9122 ft

Earthquake Activity

City Distance Mag. Time & Date
Brea, California 47 miles 2.9 3:35 PM PDT
2014-10-23
Brea, California 47 miles 2.8 3:34 PM PDT
2014-10-23
Corona, California 59 miles 2.5 1:09 PM PDT
2014-10-23
Solvang, California 101 miles 2.6 5:35 PM PDT
2014-10-22
Minimum magnitude displayed is 2.5.

Coastal Water Temperatures

Place Temperature
No Stations Reporting

Nearby Weather Stations